sensor_id;sensor_type;location;lat;lon;timestamp;P1;durP1;ratioP1;P2;durP2;ratioP2
72117;SDS011;59992;47.490;8.736;2023-07-31T00:00:24;3.10;;;1.50;;
72117;SDS011;59992;47.490;8.736;2023-07-31T00:03:15;3.20;;;1.50;;
72117;SDS011;59992;47.490;8.736;2023-07-31T00:06:05;2.80;;;1.50;;
72117;SDS011;59992;47.490;8.736;2023-07-31T00:08:55;4.20;;;1.90;;
72117;SDS011;59992;47.490;8.736;2023-07-31T00:11:45;3.50;;;1.70;;
72117;SDS011;59992;47.490;8.736;2023-07-31T00:14:35;5.00;;;1.80;;
72117;SDS011;59992;47.490;8.736;2023-07-31T00:17:25;4.70;;;1.70;;
72117;SDS011;59992;47.490;8.736;2023-07-31T00:20:15;3.70;;;1.80;;
72117;SDS011;59992;47.490;8.736;2023-07-31T00:23:06;4.40;;;1.60;;
72117;SDS011;59992;47.490;8.736;2023-07-31T00:25:56;2.60;;;1.70;;
72117;SDS011;59992;47.490;8.736;2023-07-31T00:28:46;3.00;;;1.70;;
72117;SDS011;59992;47.490;8.736;2023-07-31T00:31:36;3.20;;;1.50;;
72117;SDS011;59992;47.490;8.736;2023-07-31T00:34:26;5.40;;;1.90;;
72117;SDS011;59992;47.490;8.736;2023-07-31T00:37:16;4.40;;;2.00;;
72117;SDS011;59992;47.490;8.736;2023-07-31T00:40:07;3.10;;;1.80;;
72117;SDS011;59992;47.490;8.736;2023-07-31T00:42:58;5.00;;;2.10;;
72117;SDS011;59992;47.490;8.736;2023-07-31T00:45:48;5.00;;;2.00;;
72117;SDS011;59992;47.490;8.736;2023-07-31T00:48:38;3.60;;;1.60;;
72117;SDS011;59992;47.490;8.736;2023-07-31T00:51:29;2.70;;;2.00;;
72117;SDS011;59992;47.490;8.736;2023-07-31T00:54:19;3.10;;;1.80;;
72117;SDS011;59992;47.490;8.736;2023-07-31T00:57:09;3.70;;;1.90;;
72117;SDS011;59992;47.490;8.736;2023-07-31T01:00:00;4.40;;;1.80;;
72117;SDS011;59992;47.490;8.736;2023-07-31T01:02:51;3.30;;;1.60;;
72117;SDS011;59992;47.490;8.736;2023-07-31T01:05:45;3.80;;;2.00;;
72117;SDS011;59992;47.490;8.736;2023-07-31T01:08:44;3.80;;;1.70;;
72117;SDS011;59992;47.490;8.736;2023-07-31T01:11:44;3.80;;;1.70;;
72117;SDS011;59992;47.490;8.736;2023-07-31T01:14:40;3.00;;;1.90;;
72117;SDS011;59992;47.490;8.736;2023-07-31T01:17:38;3.30;;;1.60;;
72117;SDS011;59992;47.490;8.736;2023-07-31T01:20:29;3.80;;;2.00;;
72117;SDS011;59992;47.490;8.736;2023-07-31T01:23:26;2.60;;;1.60;;
72117;SDS011;59992;47.490;8.736;2023-07-31T01:26:33;3.00;;;1.70;;
72117;SDS011;59992;47.490;8.736;2023-07-31T01:29:32;4.30;;;2.00;;
72117;SDS011;59992;47.490;8.736;2023-07-31T01:32:26;3.50;;;1.70;;
72117;SDS011;59992;47.490;8.736;2023-07-31T01:35:18;3.30;;;2.00;;
72117;SDS011;59992;47.490;8.736;2023-07-31T01:38:08;3.50;;;1.80;;
72117;SDS011;59992;47.490;8.736;2023-07-31T01:40:58;3.40;;;1.80;;
72117;SDS011;59992;47.490;8.736;2023-07-31T01:43:48;3.20;;;1.90;;
72117;SDS011;59992;47.490;8.736;2023-07-31T01:46:38;2.60;;;1.50;;
72117;SDS011;59992;47.490;8.736;2023-07-31T01:49:28;4.30;;;1.90;;
72117;SDS011;59992;47.490;8.736;2023-07-31T01:52:18;3.20;;;1.80;;
72117;SDS011;59992;47.490;8.736;2023-07-31T01:55:08;3.60;;;1.60;;
72117;SDS011;59992;47.490;8.736;2023-07-31T01:57:58;4.20;;;1.70;;
72117;SDS011;59992;47.490;8.736;2023-07-31T02:00:49;3.80;;;1.90;;
72117;SDS011;59992;47.490;8.736;2023-07-31T02:03:39;4.70;;;1.70;;
72117;SDS011;59992;47.490;8.736;2023-07-31T02:06:29;3.10;;;1.80;;
72117;SDS011;59992;47.490;8.736;2023-07-31T02:09:19;3.10;;;1.90;;
72117;SDS011;59992;47.490;8.736;2023-07-31T02:12:10;4.00;;;1.90;;
72117;SDS011;59992;47.490;8.736;2023-07-31T02:15:01;3.50;;;1.90;;
72117;SDS011;59992;47.490;8.736;2023-07-31T02:17:52;3.50;;;1.80;;
72117;SDS011;59992;47.490;8.736;2023-07-31T02:20:42;4.90;;;2.20;;
72117;SDS011;59992;47.490;8.736;2023-07-31T02:23:37;4.30;;;2.20;;
72117;SDS011;59992;47.490;8.736;2023-07-31T02:26:27;5.20;;;2.10;;
72117;SDS011;59992;47.490;8.736;2023-07-31T02:29:17;5.00;;;2.40;;
72117;SDS011;59992;47.490;8.736;2023-07-31T02:32:07;4.50;;;2.40;;
72117;SDS011;59992;47.490;8.736;2023-07-31T02:34:57;3.60;;;2.20;;
72117;SDS011;59992;47.490;8.736;2023-07-31T02:37:47;5.80;;;2.40;;
72117;SDS011;59992;47.490;8.736;2023-07-31T02:40:37;5.90;;;2.60;;
72117;SDS011;59992;47.490;8.736;2023-07-31T02:43:29;5.20;;;2.10;;
72117;SDS011;59992;47.490;8.736;2023-07-31T02:46:20;4.10;;;2.50;;
72117;SDS011;59992;47.490;8.736;2023-07-31T02:49:11;4.60;;;2.10;;
72117;SDS011;59992;47.490;8.736;2023-07-31T02:52:02;5.70;;;1.90;;
72117;SDS011;59992;47.490;8.736;2023-07-31T02:54:52;5.40;;;2.50;;
72117;SDS011;59992;47.490;8.736;2023-07-31T02:57:42;4.90;;;2.10;;
72117;SDS011;59992;47.490;8.736;2023-07-31T03:03:22;4.50;;;1.80;;
72117;SDS011;59992;47.490;8.736;2023-07-31T03:06:12;5.10;;;1.50;;
72117;SDS011;59992;47.490;8.736;2023-07-31T03:09:02;4.00;;;1.80;;
72117;SDS011;59992;47.490;8.736;2023-07-31T03:11:53;3.90;;;1.90;;
72117;SDS011;59992;47.490;8.736;2023-07-31T03:14:43;3.50;;;1.80;;
72117;SDS011;59992;47.490;8.736;2023-07-31T03:17:34;2.40;;;1.50;;
72117;SDS011;59992;47.490;8.736;2023-07-31T03:20:24;4.60;;;1.60;;
72117;SDS011;59992;47.490;8.736;2023-07-31T03:23:14;3.50;;;1.70;;
72117;SDS011;59992;47.490;8.736;2023-07-31T03:26:06;4.50;;;1.70;;
72117;SDS011;59992;47.490;8.736;2023-07-31T03:28:56;4.40;;;1.90;;
72117;SDS011;59992;47.490;8.736;2023-07-31T03:31:47;2.50;;;1.70;;
72117;SDS011;59992;47.490;8.736;2023-07-31T03:34:37;3.90;;;1.90;;
72117;SDS011;59992;47.490;8.736;2023-07-31T03:37:27;6.00;;;1.80;;
72117;SDS011;59992;47.490;8.736;2023-07-31T03:40:17;3.90;;;1.70;;
72117;SDS011;59992;47.490;8.736;2023-07-31T03:43:07;4.10;;;1.70;;
72117;SDS011;59992;47.490;8.736;2023-07-31T03:45:57;4.90;;;2.10;;
72117;SDS011;59992;47.490;8.736;2023-07-31T03:48:47;3.20;;;1.70;;
72117;SDS011;59992;47.490;8.736;2023-07-31T03:51:38;4.40;;;1.50;;
72117;SDS011;59992;47.490;8.736;2023-07-31T03:54:29;2.70;;;1.70;;
72117;SDS011;59992;47.490;8.736;2023-07-31T03:57:19;3.10;;;1.60;;
72117;SDS011;59992;47.490;8.736;2023-07-31T04:00:10;3.20;;;1.70;;
72117;SDS011;59992;47.490;8.736;2023-07-31T04:03:00;5.70;;;1.60;;
72117;SDS011;59992;47.490;8.736;2023-07-31T04:05:51;5.10;;;1.60;;
72117;SDS011;59992;47.490;8.736;2023-07-31T04:08:42;5.00;;;1.70;;
72117;SDS011;59992;47.490;8.736;2023-07-31T04:11:33;5.20;;;2.00;;
72117;SDS011;59992;47.490;8.736;2023-07-31T04:14:23;3.30;;;1.70;;
72117;SDS011;59992;47.490;8.736;2023-07-31T04:17:13;6.20;;;2.20;;
72117;SDS011;59992;47.490;8.736;2023-07-31T04:20:03;5.90;;;2.00;;
72117;SDS011;59992;47.490;8.736;2023-07-31T04:22:54;4.10;;;2.10;;
72117;SDS011;59992;47.490;8.736;2023-07-31T04:25:45;3.70;;;2.00;;
72117;SDS011;59992;47.490;8.736;2023-07-31T04:28:35;4.80;;;1.70;;
72117;SDS011;59992;47.490;8.736;2023-07-31T04:31:25;5.10;;;1.90;;
72117;SDS011;59992;47.490;8.736;2023-07-31T04:34:15;3.20;;;1.70;;
72117;SDS011;59992;47.490;8.736;2023-07-31T04:37:05;4.70;;;2.10;;
72117;SDS011;59992;47.490;8.736;2023-07-31T04:39:56;3.90;;;1.90;;
72117;SDS011;59992;47.490;8.736;2023-07-31T04:42:46;6.00;;;1.80;;
72117;SDS011;59992;47.490;8.736;2023-07-31T04:45:37;4.40;;;1.70;;
72117;SDS011;59992;47.490;8.736;2023-07-31T04:48:27;3.30;;;2.10;;
72117;SDS011;59992;47.490;8.736;2023-07-31T04:51:17;4.90;;;1.70;;
72117;SDS011;59992;47.490;8.736;2023-07-31T04:54:08;3.10;;;1.60;;
72117;SDS011;59992;47.490;8.736;2023-07-31T04:56:59;6.00;;;2.10;;
72117;SDS011;59992;47.490;8.736;2023-07-31T04:59:50;4.50;;;1.80;;
72117;SDS011;59992;47.490;8.736;2023-07-31T05:02:40;7.50;;;2.00;;
72117;SDS011;59992;47.490;8.736;2023-07-31T05:05:30;2.80;;;1.60;;
72117;SDS011;59992;47.490;8.736;2023-07-31T05:08:20;4.40;;;1.60;;
72117;SDS011;59992;47.490;8.736;2023-07-31T05:11:10;2.90;;;1.60;;
72117;SDS011;59992;47.490;8.736;2023-07-31T05:14:00;4.40;;;1.80;;
72117;SDS011;59992;47.490;8.736;2023-07-31T05:16:50;2.90;;;1.80;;
72117;SDS011;59992;47.490;8.736;2023-07-31T05:19:41;3.60;;;1.90;;
72117;SDS011;59992;47.490;8.736;2023-07-31T05:22:31;3.90;;;1.80;;
72117;SDS011;59992;47.490;8.736;2023-07-31T05:25:21;5.30;;;2.00;;
72117;SDS011;59992;47.490;8.736;2023-07-31T05:28:11;5.90;;;1.70;;
72117;SDS011;59992;47.490;8.736;2023-07-31T05:31:01;4.70;;;1.70;;
72117;SDS011;59992;47.490;8.736;2023-07-31T05:33:52;3.60;;;1.80;;
72117;SDS011;59992;47.490;8.736;2023-07-31T05:36:43;5.00;;;1.80;;
72117;SDS011;59992;47.490;8.736;2023-07-31T05:39:33;3.50;;;2.00;;
72117;SDS011;59992;47.490;8.736;2023-07-31T05:42:23;4.20;;;1.60;;
72117;SDS011;59992;47.490;8.736;2023-07-31T05:45:13;5.10;;;1.90;;
72117;SDS011;59992;47.490;8.736;2023-07-31T05:48:04;4.80;;;2.00;;
72117;SDS011;59992;47.490;8.736;2023-07-31T05:50:54;3.80;;;1.60;;
72117;SDS011;59992;47.490;8.736;2023-07-31T05:53:44;3.20;;;1.80;;
72117;SDS011;59992;47.490;8.736;2023-07-31T05:56:35;5.40;;;1.70;;
72117;SDS011;59992;47.490;8.736;2023-07-31T05:59:25;2.20;;;1.50;;
72117;SDS011;59992;47.490;8.736;2023-07-31T06:02:15;2.90;;;1.70;;
72117;SDS011;59992;47.490;8.736;2023-07-31T06:05:06;3.50;;;1.70;;
72117;SDS011;59992;47.490;8.736;2023-07-31T06:07:57;3.50;;;1.90;;
72117;SDS011;59992;47.490;8.736;2023-07-31T06:10:47;8.60;;;2.10;;
72117;SDS011;59992;47.490;8.736;2023-07-31T06:13:37;5.10;;;1.80;;
72117;SDS011;59992;47.490;8.736;2023-07-31T06:16:27;3.30;;;1.80;;
72117;SDS011;59992;47.490;8.736;2023-07-31T06:19:17;4.10;;;1.80;;
72117;SDS011;59992;47.490;8.736;2023-07-31T06:22:08;2.80;;;1.70;;
72117;SDS011;59992;47.490;8.736;2023-07-31T06:24:58;2.80;;;1.30;;
72117;SDS011;59992;47.490;8.736;2023-07-31T06:27:48;3.90;;;1.80;;
72117;SDS011;59992;47.490;8.736;2023-07-31T06:30:38;4.60;;;2.10;;
72117;SDS011;59992;47.490;8.736;2023-07-31T06:33:28;3.80;;;1.40;;
72117;SDS011;59992;47.490;8.736;2023-07-31T06:36:18;3.20;;;1.40;;
72117;SDS011;59992;47.490;8.736;2023-07-31T06:39:08;3.30;;;1.60;;
72117;SDS011;59992;47.490;8.736;2023-07-31T06:41:58;4.10;;;1.50;;
72117;SDS011;59992;47.490;8.736;2023-07-31T06:44:49;2.90;;;1.50;;
72117;SDS011;59992;47.490;8.736;2023-07-31T06:47:39;4.10;;;1.60;;
72117;SDS011;59992;47.490;8.736;2023-07-31T06:50:29;3.90;;;1.70;;
72117;SDS011;59992;47.490;8.736;2023-07-31T06:53:19;3.00;;;1.20;;
72117;SDS011;59992;47.490;8.736;2023-07-31T06:56:10;5.00;;;1.40;;
72117;SDS011;59992;47.490;8.736;2023-07-31T06:59:00;3.40;;;1.40;;
72117;SDS011;59992;47.490;8.736;2023-07-31T07:01:50;3.00;;;1.50;;
72117;SDS011;59992;47.490;8.736;2023-07-31T07:04:41;3.20;;;1.30;;
72117;SDS011;59992;47.490;8.736;2023-07-31T07:07:31;4.00;;;1.40;;
72117;SDS011;59992;47.490;8.736;2023-07-31T07:10:21;3.70;;;1.30;;
72117;SDS011;59992;47.490;8.736;2023-07-31T07:13:11;3.00;;;1.30;;
72117;SDS011;59992;47.490;8.736;2023-07-31T07:16:02;4.20;;;1.10;;
72117;SDS011;59992;47.490;8.736;2023-07-31T07:18:52;5.10;;;1.40;;
72117;SDS011;59992;47.490;8.736;2023-07-31T07:21:42;2.70;;;1.00;;
72117;SDS011;59992;47.490;8.736;2023-07-31T07:24:32;4.50;;;1.40;;
72117;SDS011;59992;47.490;8.736;2023-07-31T07:27:22;3.00;;;1.20;;
72117;SDS011;59992;47.490;8.736;2023-07-31T07:30:12;3.80;;;1.30;;
72117;SDS011;59992;47.490;8.736;2023-07-31T07:33:03;3.10;;;1.50;;
72117;SDS011;59992;47.490;8.736;2023-07-31T07:35:53;4.60;;;1.50;;
72117;SDS011;59992;47.490;8.736;2023-07-31T07:38:43;3.10;;;1.10;;
72117;SDS011;59992;47.490;8.736;2023-07-31T07:41:33;3.70;;;1.40;;
72117;SDS011;59992;47.490;8.736;2023-07-31T07:44:23;3.30;;;1.30;;
72117;SDS011;59992;47.490;8.736;2023-07-31T07:47:14;4.20;;;1.30;;
72117;SDS011;59992;47.490;8.736;2023-07-31T07:50:04;5.30;;;1.20;;
72117;SDS011;59992;47.490;8.736;2023-07-31T07:52:56;3.50;;;1.30;;
72117;SDS011;59992;47.490;8.736;2023-07-31T07:55:46;3.80;;;1.10;;
72117;SDS011;59992;47.490;8.736;2023-07-31T07:58:36;5.60;;;1.20;;
72117;SDS011;59992;47.490;8.736;2023-07-31T08:01:26;4.30;;;1.30;;
72117;SDS011;59992;47.490;8.736;2023-07-31T08:04:16;4.00;;;1.10;;
72117;SDS011;59992;47.490;8.736;2023-07-31T08:07:06;3.30;;;1.50;;
72117;SDS011;59992;47.490;8.736;2023-07-31T08:09:58;3.30;;;1.20;;
72117;SDS011;59992;47.490;8.736;2023-07-31T08:12:49;3.60;;;1.20;;
72117;SDS011;59992;47.490;8.736;2023-07-31T08:15:39;4.70;;;1.30;;
72117;SDS011;59992;47.490;8.736;2023-07-31T08:18:31;2.80;;;1.20;;
72117;SDS011;59992;47.490;8.736;2023-07-31T08:21:22;3.90;;;1.10;;
72117;SDS011;59992;47.490;8.736;2023-07-31T08:24:12;3.40;;;1.50;;
72117;SDS011;59992;47.490;8.736;2023-07-31T08:27:02;3.20;;;1.40;;
72117;SDS011;59992;47.490;8.736;2023-07-31T08:29:54;2.30;;;1.00;;
72117;SDS011;59992;47.490;8.736;2023-07-31T08:32:44;4.20;;;1.30;;
72117;SDS011;59992;47.490;8.736;2023-07-31T08:35:34;5.50;;;1.20;;
72117;SDS011;59992;47.490;8.736;2023-07-31T08:38:25;3.70;;;1.40;;
72117;SDS011;59992;47.490;8.736;2023-07-31T08:41:17;2.90;;;1.30;;
72117;SDS011;59992;47.490;8.736;2023-07-31T08:44:07;3.70;;;1.50;;
72117;SDS011;59992;47.490;8.736;2023-07-31T08:46:59;4.10;;;1.40;;
72117;SDS011;59992;47.490;8.736;2023-07-31T08:49:49;3.10;;;1.20;;
72117;SDS011;59992;47.490;8.736;2023-07-31T08:52:41;2.00;;;0.80;;
72117;SDS011;59992;47.490;8.736;2023-07-31T08:55:32;3.00;;;1.40;;
72117;SDS011;59992;47.490;8.736;2023-07-31T08:58:23;3.10;;;1.30;;
72117;SDS011;59992;47.490;8.736;2023-07-31T09:01:15;2.50;;;1.20;;
72117;SDS011;59992;47.490;8.736;2023-07-31T09:04:06;3.70;;;1.40;;
72117;SDS011;59992;47.490;8.736;2023-07-31T09:06:59;3.70;;;1.30;;
72117;SDS011;59992;47.490;8.736;2023-07-31T09:09:51;3.90;;;1.30;;
72117;SDS011;59992;47.490;8.736;2023-07-31T09:12:41;3.20;;;1.30;;
72117;SDS011;59992;47.490;8.736;2023-07-31T09:15:33;3.00;;;1.30;;
72117;SDS011;59992;47.490;8.736;2023-07-31T09:18:23;3.70;;;1.10;;
72117;SDS011;59992;47.490;8.736;2023-07-31T09:21:13;2.70;;;1.30;;
72117;SDS011;59992;47.490;8.736;2023-07-31T09:24:04;3.50;;;0.90;;
72117;SDS011;59992;47.490;8.736;2023-07-31T09:26:54;2.20;;;1.00;;
72117;SDS011;59992;47.490;8.736;2023-07-31T09:29:46;3.80;;;1.40;;
72117;SDS011;59992;47.490;8.736;2023-07-31T09:32:49;3.70;;;1.10;;
72117;SDS011;59992;47.490;8.736;2023-07-31T09:35:39;2.20;;;1.10;;
72117;SDS011;59992;47.490;8.736;2023-07-31T09:38:30;3.00;;;1.00;;
72117;SDS011;59992;47.490;8.736;2023-07-31T09:41:20;2.70;;;1.30;;
72117;SDS011;59992;47.490;8.736;2023-07-31T09:44:10;3.20;;;1.10;;
72117;SDS011;59992;47.490;8.736;2023-07-31T09:47:01;4.00;;;1.20;;
72117;SDS011;59992;47.490;8.736;2023-07-31T09:49:51;4.80;;;1.10;;
72117;SDS011;59992;47.490;8.736;2023-07-31T09:52:42;3.30;;;1.10;;
72117;SDS011;59992;47.490;8.736;2023-07-31T09:55:32;2.70;;;1.20;;
72117;SDS011;59992;47.490;8.736;2023-07-31T09:58:23;3.30;;;1.40;;
72117;SDS011;59992;47.490;8.736;2023-07-31T10:01:16;4.40;;;1.20;;
72117;SDS011;59992;47.490;8.736;2023-07-31T10:04:06;3.10;;;1.20;;
72117;SDS011;59992;47.490;8.736;2023-07-31T10:06:58;4.60;;;1.10;;
72117;SDS011;59992;47.490;8.736;2023-07-31T10:09:50;4.50;;;1.00;;
72117;SDS011;59992;47.490;8.736;2023-07-31T10:12:42;3.20;;;1.10;;
72117;SDS011;59992;47.490;8.736;2023-07-31T10:15:34;4.00;;;1.50;;
72117;SDS011;59992;47.490;8.736;2023-07-31T10:18:24;3.60;;;1.00;;
72117;SDS011;59992;47.490;8.736;2023-07-31T10:21:15;2.90;;;1.30;;
72117;SDS011;59992;47.490;8.736;2023-07-31T10:24:06;4.40;;;1.30;;
72117;SDS011;59992;47.490;8.736;2023-07-31T10:26:57;3.30;;;1.20;;
72117;SDS011;59992;47.490;8.736;2023-07-31T10:29:49;4.00;;;1.00;;
72117;SDS011;59992;47.490;8.736;2023-07-31T10:32:41;3.60;;;1.40;;
72117;SDS011;59992;47.490;8.736;2023-07-31T10:35:32;2.40;;;1.10;;
72117;SDS011;59992;47.490;8.736;2023-07-31T10:38:23;3.90;;;1.10;;
72117;SDS011;59992;47.490;8.736;2023-07-31T10:41:13;2.50;;;1.10;;
72117;SDS011;59992;47.490;8.736;2023-07-31T10:44:04;3.60;;;1.40;;
72117;SDS011;59992;47.490;8.736;2023-07-31T10:46:57;4.30;;;1.20;;
72117;SDS011;59992;47.490;8.736;2023-07-31T10:49:48;3.00;;;1.30;;
72117;SDS011;59992;47.490;8.736;2023-07-31T10:52:39;3.20;;;1.50;;
72117;SDS011;59992;47.490;8.736;2023-07-31T10:55:32;3.40;;;1.30;;
72117;SDS011;59992;47.490;8.736;2023-07-31T10:58:27;2.60;;;1.10;;
72117;SDS011;59992;47.490;8.736;2023-07-31T11:01:18;3.60;;;1.50;;
72117;SDS011;59992;47.490;8.736;2023-07-31T11:04:11;3.60;;;1.60;;
72117;SDS011;59992;47.490;8.736;2023-07-31T11:07:01;2.20;;;1.10;;
72117;SDS011;59992;47.490;8.736;2023-07-31T11:09:55;3.70;;;1.40;;
72117;SDS011;59992;47.490;8.736;2023-07-31T11:12:46;6.30;;;1.40;;
72117;SDS011;59992;47.490;8.736;2023-07-31T11:15:37;2.80;;;1.20;;
72117;SDS011;59992;47.490;8.736;2023-07-31T11:18:27;3.20;;;1.20;;
72117;SDS011;59992;47.490;8.736;2023-07-31T11:21:18;4.00;;;1.40;;
72117;SDS011;59992;47.490;8.736;2023-07-31T11:24:09;2.80;;;1.30;;
72117;SDS011;59992;47.490;8.736;2023-07-31T11:27:07;3.60;;;1.10;;
72117;SDS011;59992;47.490;8.736;2023-07-31T11:30:01;4.90;;;1.50;;
72117;SDS011;59992;47.490;8.736;2023-07-31T11:32:52;3.50;;;1.20;;
72117;SDS011;59992;47.490;8.736;2023-07-31T11:35:44;4.50;;;1.50;;
72117;SDS011;59992;47.490;8.736;2023-07-31T11:38:36;4.10;;;1.20;;
72117;SDS011;59992;47.490;8.736;2023-07-31T11:41:26;3.20;;;1.10;;
72117;SDS011;59992;47.490;8.736;2023-07-31T11:44:18;3.30;;;1.10;;
72117;SDS011;59992;47.490;8.736;2023-07-31T11:47:10;4.30;;;1.20;;
72117;SDS011;59992;47.490;8.736;2023-07-31T11:50:02;4.30;;;1.20;;
72117;SDS011;59992;47.490;8.736;2023-07-31T11:52:55;2.50;;;1.10;;
72117;SDS011;59992;47.490;8.736;2023-07-31T11:55:47;2.80;;;1.00;;
72117;SDS011;59992;47.490;8.736;2023-07-31T11:58:38;2.90;;;1.10;;
72117;SDS011;59992;47.490;8.736;2023-07-31T12:01:30;4.70;;;1.20;;
72117;SDS011;59992;47.490;8.736;2023-07-31T12:04:21;3.20;;;1.20;;
72117;SDS011;59992;47.490;8.736;2023-07-31T12:07:13;4.10;;;1.30;;
72117;SDS011;59992;47.490;8.736;2023-07-31T12:10:03;3.30;;;1.20;;
72117;SDS011;59992;47.490;8.736;2023-07-31T12:12:58;2.20;;;1.10;;
72117;SDS011;59992;47.490;8.736;2023-07-31T12:15:53;3.80;;;1.30;;
72117;SDS011;59992;47.490;8.736;2023-07-31T12:18:44;4.30;;;1.30;;
72117;SDS011;59992;47.490;8.736;2023-07-31T12:21:38;3.90;;;1.20;;
72117;SDS011;59992;47.490;8.736;2023-07-31T12:24:29;3.10;;;1.20;;
72117;SDS011;59992;47.490;8.736;2023-07-31T12:27:19;2.70;;;1.30;;
72117;SDS011;59992;47.490;8.736;2023-07-31T12:33:16;3.60;;;1.70;;
72117;SDS011;59992;47.490;8.736;2023-07-31T12:36:09;4.40;;;1.30;;
72117;SDS011;59992;47.490;8.736;2023-07-31T12:39:00;3.80;;;1.10;;
72117;SDS011;59992;47.490;8.736;2023-07-31T12:41:50;6.00;;;1.30;;
72117;SDS011;59992;47.490;8.736;2023-07-31T12:44:41;3.00;;;1.30;;
72117;SDS011;59992;47.490;8.736;2023-07-31T12:47:31;3.70;;;1.20;;
72117;SDS011;59992;47.490;8.736;2023-07-31T12:50:20;4.10;;;1.50;;
72117;SDS011;59992;47.490;8.736;2023-07-31T12:53:11;3.50;;;1.20;;
72117;SDS011;59992;47.490;8.736;2023-07-31T12:56:01;4.00;;;1.30;;
72117;SDS011;59992;47.490;8.736;2023-07-31T12:58:51;3.60;;;1.30;;
72117;SDS011;59992;47.490;8.736;2023-07-31T13:01:41;4.30;;;1.30;;
72117;SDS011;59992;47.490;8.736;2023-07-31T13:04:32;2.90;;;1.20;;
72117;SDS011;59992;47.490;8.736;2023-07-31T13:07:22;3.20;;;1.00;;
72117;SDS011;59992;47.490;8.736;2023-07-31T13:10:12;2.80;;;1.10;;
72117;SDS011;59992;47.490;8.736;2023-07-31T13:13:03;3.20;;;1.20;;
72117;SDS011;59992;47.490;8.736;2023-07-31T13:15:53;3.50;;;1.10;;
72117;SDS011;59992;47.490;8.736;2023-07-31T13:18:43;3.60;;;1.30;;
72117;SDS011;59992;47.490;8.736;2023-07-31T13:21:34;2.50;;;1.10;;
72117;SDS011;59992;47.490;8.736;2023-07-31T13:24:24;3.60;;;1.30;;
72117;SDS011;59992;47.490;8.736;2023-07-31T13:27:14;4.00;;;1.50;;
72117;SDS011;59992;47.490;8.736;2023-07-31T13:30:08;3.20;;;1.20;;
72117;SDS011;59992;47.490;8.736;2023-07-31T13:32:58;3.80;;;1.20;;
72117;SDS011;59992;47.490;8.736;2023-07-31T13:35:48;2.60;;;1.10;;
72117;SDS011;59992;47.490;8.736;2023-07-31T13:38:38;5.60;;;1.30;;
72117;SDS011;59992;47.490;8.736;2023-07-31T13:41:29;3.90;;;1.10;;
72117;SDS011;59992;47.490;8.736;2023-07-31T13:44:19;4.20;;;1.20;;
72117;SDS011;59992;47.490;8.736;2023-07-31T13:47:09;4.10;;;1.20;;
72117;SDS011;59992;47.490;8.736;2023-07-31T13:49:59;3.60;;;1.20;;
72117;SDS011;59992;47.490;8.736;2023-07-31T13:52:49;2.60;;;1.30;;
72117;SDS011;59992;47.490;8.736;2023-07-31T13:55:40;2.80;;;1.20;;
72117;SDS011;59992;47.490;8.736;2023-07-31T13:58:32;2.80;;;1.30;;
72117;SDS011;59992;47.490;8.736;2023-07-31T14:01:23;2.20;;;1.20;;
72117;SDS011;59992;47.490;8.736;2023-07-31T14:04:13;3.40;;;1.50;;
72117;SDS011;59992;47.490;8.736;2023-07-31T14:07:05;4.20;;;1.30;;
72117;SDS011;59992;47.490;8.736;2023-07-31T14:09:55;2.50;;;1.20;;
72117;SDS011;59992;47.490;8.736;2023-07-31T14:12:46;2.70;;;1.10;;
72117;SDS011;59992;47.490;8.736;2023-07-31T14:15:36;4.30;;;1.20;;
72117;SDS011;59992;47.490;8.736;2023-07-31T14:18:26;3.20;;;1.60;;
72117;SDS011;59992;47.490;8.736;2023-07-31T14:21:16;2.50;;;1.10;;
72117;SDS011;59992;47.490;8.736;2023-07-31T14:24:07;3.00;;;1.40;;
72117;SDS011;59992;47.490;8.736;2023-07-31T14:26:57;4.20;;;1.60;;
72117;SDS011;59992;47.490;8.736;2023-07-31T14:29:47;5.40;;;1.50;;
72117;SDS011;59992;47.490;8.736;2023-07-31T14:32:37;3.30;;;1.50;;
72117;SDS011;59992;47.490;8.736;2023-07-31T14:35:27;3.10;;;1.40;;
72117;SDS011;59992;47.490;8.736;2023-07-31T14:38:18;4.90;;;1.80;;
72117;SDS011;59992;47.490;8.736;2023-07-31T14:41:08;3.70;;;1.60;;
72117;SDS011;59992;47.490;8.736;2023-07-31T14:43:58;2.80;;;1.60;;
72117;SDS011;59992;47.490;8.736;2023-07-31T14:46:48;5.40;;;1.80;;
72117;SDS011;59992;47.490;8.736;2023-07-31T14:49:39;5.30;;;1.70;;
72117;SDS011;59992;47.490;8.736;2023-07-31T14:52:29;3.00;;;1.90;;
72117;SDS011;59992;47.490;8.736;2023-07-31T14:55:19;4.60;;;1.60;;
72117;SDS011;59992;47.490;8.736;2023-07-31T14:58:09;4.20;;;1.60;;
72117;SDS011;59992;47.490;8.736;2023-07-31T15:01:01;4.30;;;1.60;;
72117;SDS011;59992;47.490;8.736;2023-07-31T15:03:51;3.30;;;1.50;;
72117;SDS011;59992;47.490;8.736;2023-07-31T15:06:42;3.90;;;1.90;;
72117;SDS011;59992;47.490;8.736;2023-07-31T15:09:32;5.30;;;1.90;;
72117;SDS011;59992;47.490;8.736;2023-07-31T15:12:22;4.20;;;1.90;;
72117;SDS011;59992;47.490;8.736;2023-07-31T15:15:13;3.80;;;1.50;;
72117;SDS011;59992;47.490;8.736;2023-07-31T15:18:03;4.60;;;1.80;;
72117;SDS011;59992;47.490;8.736;2023-07-31T15:20:54;4.70;;;1.60;;
72117;SDS011;59992;47.490;8.736;2023-07-31T15:23:44;4.50;;;1.90;;
72117;SDS011;59992;47.490;8.736;2023-07-31T15:26:34;4.50;;;1.80;;
72117;SDS011;59992;47.490;8.736;2023-07-31T15:29:28;4.20;;;1.50;;
72117;SDS011;59992;47.490;8.736;2023-07-31T15:32:19;4.00;;;2.00;;
72117;SDS011;59992;47.490;8.736;2023-07-31T15:35:11;4.70;;;1.70;;
72117;SDS011;59992;47.490;8.736;2023-07-31T15:38:02;4.60;;;1.90;;
72117;SDS011;59992;47.490;8.736;2023-07-31T15:40:52;4.80;;;2.00;;
72117;SDS011;59992;47.490;8.736;2023-07-31T15:43:42;4.10;;;2.00;;
72117;SDS011;59992;47.490;8.736;2023-07-31T15:46:33;5.20;;;2.10;;
72117;SDS011;59992;47.490;8.736;2023-07-31T15:49:23;4.40;;;1.50;;
72117;SDS011;59992;47.490;8.736;2023-07-31T15:52:14;4.30;;;2.20;;
72117;SDS011;59992;47.490;8.736;2023-07-31T15:55:04;5.60;;;1.90;;
72117;SDS011;59992;47.490;8.736;2023-07-31T15:57:55;5.00;;;2.10;;
72117;SDS011;59992;47.490;8.736;2023-07-31T16:00:45;4.10;;;1.70;;
72117;SDS011;59992;47.490;8.736;2023-07-31T16:03:35;4.40;;;2.20;;
72117;SDS011;59992;47.490;8.736;2023-07-31T16:06:25;3.20;;;1.50;;
72117;SDS011;59992;47.490;8.736;2023-07-31T16:09:16;4.50;;;1.90;;
72117;SDS011;59992;47.490;8.736;2023-07-31T16:12:07;4.20;;;1.80;;
72117;SDS011;59992;47.490;8.736;2023-07-31T16:14:59;4.70;;;1.60;;
72117;SDS011;59992;47.490;8.736;2023-07-31T16:17:49;5.50;;;2.00;;
72117;SDS011;59992;47.490;8.736;2023-07-31T16:20:39;3.70;;;1.70;;
72117;SDS011;59992;47.490;8.736;2023-07-31T16:23:29;6.30;;;2.30;;
72117;SDS011;59992;47.490;8.736;2023-07-31T16:26:19;4.50;;;2.00;;
72117;SDS011;59992;47.490;8.736;2023-07-31T16:29:10;4.30;;;1.80;;
72117;SDS011;59992;47.490;8.736;2023-07-31T16:32:00;6.20;;;2.60;;
72117;SDS011;59992;47.490;8.736;2023-07-31T16:34:50;4.60;;;1.90;;
72117;SDS011;59992;47.490;8.736;2023-07-31T16:37:40;4.50;;;2.40;;
72117;SDS011;59992;47.490;8.736;2023-07-31T16:40:31;6.30;;;2.30;;
72117;SDS011;59992;47.490;8.736;2023-07-31T16:43:22;4.20;;;1.90;;
72117;SDS011;59992;47.490;8.736;2023-07-31T16:46:13;5.00;;;2.40;;
72117;SDS011;59992;47.490;8.736;2023-07-31T16:49:03;4.80;;;1.70;;
72117;SDS011;59992;47.490;8.736;2023-07-31T16:51:53;4.40;;;1.60;;
72117;SDS011;59992;47.490;8.736;2023-07-31T16:54:43;4.00;;;1.90;;
72117;SDS011;59992;47.490;8.736;2023-07-31T16:57:36;4.90;;;1.90;;
72117;SDS011;59992;47.490;8.736;2023-07-31T17:00:26;5.60;;;1.80;;
72117;SDS011;59992;47.490;8.736;2023-07-31T17:03:17;5.50;;;2.00;;
72117;SDS011;59992;47.490;8.736;2023-07-31T17:06:07;4.90;;;2.10;;
72117;SDS011;59992;47.490;8.736;2023-07-31T17:08:58;4.30;;;2.00;;
72117;SDS011;59992;47.490;8.736;2023-07-31T17:11:48;3.60;;;2.10;;
72117;SDS011;59992;47.490;8.736;2023-07-31T17:14:38;5.10;;;2.10;;